Time;durP1;ratioP1;P1;durP2;ratioP2;P2;SDS_P1;SDS_P2;PMS_P1;PMS_P2;Temp;Humidity;BMP_temperature;BMP_pressure;BME280_temperature;BME280_humidity;BME280_pressure;Samples;Min_cycle;Max_cycle;Signal;HPM_P1;HPM_P2
2021/12/23 00:02:06;;;;;;;7.83;2.57;;;;;;;;;;5073946;28;20407;-67
2021/12/23 00:04:32;;;;;;;12.07;2.50;;;;;;;;;;5074450;28;20985;-67
2021/12/23 00:06:58;;;;;;;5.33;2.20;;;;;;;;;;5074223;28;20437;-67
2021/12/23 00:09:35;;;;;;;5.03;2.30;;;;;;;;;;5074241;28;20413;-66
2021/12/23 00:12:01;;;;;;;4.27;2.37;;;;;;;;;;5073354;28;20457;-66
2021/12/23 00:14:27;;;;;;;7.97;2.40;;;;;;;;;;5075144;28;20443;-67
2021/12/23 00:17:17;;;;;;;6.27;2.60;;;;;;;;;;5075550;28;20689;-67
2021/12/23 00:19:58;;;;;;;5.60;2.90;;;;;;;;;;5075169;28;20475;-67
2021/12/23 00:25:08;;;;;;;4.87;2.30;;;;;;;;;;5075486;28;20394;-68
2021/12/23 00:27:34;;;;;;;8.07;2.50;;;;;;;;;;5073855;28;20909;-67
2021/12/23 00:30:00;;;;;;;5.90;2.60;;;;;;;;;;5073117;28;20490;-67
2021/12/23 00:32:26;;;;;;;4.50;2.50;;;;;;;;;;5073561;28;20415;-67
2021/12/23 00:34:52;;;;;;;8.37;2.20;;;;;;;;;;5073237;28;20907;-67
2021/12/23 00:37:19;;;;;;;4.87;2.70;;;;;;;;;;5073480;28;20415;-67
2021/12/23 00:39:45;;;;;;;8.33;3.00;;;;;;;;;;5073464;28;20458;-67
2021/12/23 00:42:11;;;;;;;4.57;2.43;;;;;;;;;;5073210;28;20888;-67
2021/12/23 00:44:40;;;;;;;4.10;2.37;;;;;;;;;;5073423;28;20399;-67
2021/12/23 00:47:06;;;;;;;13.37;2.80;;;;;;;;;;5072928;28;20419;-67
2021/12/23 00:49:32;;;;;;;7.03;3.30;;;;;;;;;;5073474;28;20414;-67
2021/12/23 00:52:01;;;;;;;4.07;2.57;;;;;;;;;;5072739;28;20417;-67
2021/12/23 00:54:27;;;;;;;3.70;2.10;;;;;;;;;;5073001;28;20435;-68
2021/12/23 00:56:53;;;;;;;4.40;2.60;;;;;;;;;;5073234;28;20510;-68
2021/12/23 00:59:19;;;;;;;6.03;2.60;;;;;;;;;;5072679;28;20458;-66
2021/12/23 01:01:47;;;;;;;25.30;5.33;;;;;;;;;;5072656;28;20410;-68
2021/12/23 01:04:13;;;;;;;20.33;3.50;;;;;;;;;;5072195;28;20519;-67
2021/12/23 01:06:39;;;;;;;35.63;4.23;;;;;;;;;;5072834;28;20414;-68
2021/12/23 01:09:05;;;;;;;39.20;4.30;;;;;;;;;;5072979;28;20921;-68
2021/12/23 01:11:31;;;;;;;18.13;3.50;;;;;;;;;;5072025;28;20411;-68
2021/12/23 01:14:25;;;;;;;8.77;3.17;;;;;;;;;;5072570;28;20435;-68
2021/12/23 01:19:25;;;;;;;6.77;2.80;;;;;;;;;;5073992;28;20458;-67
2021/12/23 01:21:51;;;;;;;21.80;3.60;;;;;;;;;;5072271;28;20407;-67
2021/12/23 01:24:17;;;;;;;10.20;3.83;;;;;;;;;;5072175;28;20423;-67
2021/12/23 01:26:43;;;;;;;11.70;3.00;;;;;;;;;;5072675;28;20418;-67
2021/12/23 01:29:09;;;;;;;8.37;2.60;;;;;;;;;;5072459;28;20415;-67
2021/12/23 01:31:39;;;;;;;10.10;2.57;;;;;;;;;;5072260;28;20413;-68
2021/12/23 01:34:06;;;;;;;7.50;3.07;;;;;;;;;;5072310;28;20777;-67
2021/12/23 01:36:32;;;;;;;8.57;3.03;;;;;;;;;;5072127;28;20457;-67
2021/12/23 01:38:58;;;;;;;6.33;3.20;;;;;;;;;;5072333;28;20494;-67
2021/12/23 01:41:25;;;;;;;9.60;2.90;;;;;;;;;;5071983;28;20407;-68
2021/12/23 01:43:52;;;;;;;4.23;2.37;;;;;;;;;;5072014;28;20804;-68
2021/12/23 01:46:19;;;;;;;6.07;3.00;;;;;;;;;;5072435;28;20407;-67
2021/12/23 01:48:45;;;;;;;9.83;2.97;;;;;;;;;;5071760;28;20775;-67
2021/12/23 01:51:12;;;;;;;3.97;2.43;;;;;;;;;;5071740;28;20419;-67
2021/12/23 01:53:38;;;;;;;8.30;3.93;;;;;;;;;;5072204;28;20422;-67
2021/12/23 01:56:04;;;;;;;11.47;3.30;;;;;;;;;;5072013;28;20825;-68
2021/12/23 01:58:30;;;;;;;13.17;3.10;;;;;;;;;;5072115;28;20462;-68
2021/12/23 02:00:56;;;;;;;4.43;2.40;;;;;;;;;;5071423;28;20411;-67
2021/12/23 02:03:22;;;;;;;6.77;3.47;;;;;;;;;;5072186;28;20430;-67
2021/12/23 02:05:49;;;;;;;4.73;2.10;;;;;;;;;;5071900;28;20426;-68
2021/12/23 02:08:15;;;;;;;6.90;2.73;;;;;;;;;;5072285;28;20510;-68
2021/12/23 02:10:42;;;;;;;6.03;2.60;;;;;;;;;;5071828;28;20494;-68
2021/12/23 02:13:08;;;;;;;6.80;2.97;;;;;;;;;;5071447;28;20894;-67
2021/12/23 02:15:34;;;;;;;7.73;2.97;;;;;;;;;;5071957;28;20418;-68
2021/12/23 02:18:00;;;;;;;3.70;2.80;;;;;;;;;;5071931;28;20941;-68
2021/12/23 02:20:30;;;;;;;4.47;2.50;;;;;;;;;;5071441;28;20415;-68
2021/12/23 02:22:57;;;;;;;5.17;2.33;;;;;;;;;;5071797;28;20427;-68
2021/12/23 02:25:23;;;;;;;9.50;3.13;;;;;;;;;;5071798;28;20415;-68
2021/12/23 02:27:51;;;;;;;5.40;2.80;;;;;;;;;;5071843;28;20446;-68
2021/12/23 02:30:19;;;;;;;4.60;2.67;;;;;;;;;;5071513;28;20414;-67
2021/12/23 02:32:45;;;;;;;5.47;2.90;;;;;;;;;;5071713;28;20991;-68
2021/12/23 02:35:12;;;;;;;9.33;2.83;;;;;;;;;;5071706;28;20907;-67
2021/12/23 02:37:39;;;;;;;4.40;2.23;;;;;;;;;;5071574;28;20771;-67
2021/12/23 02:40:05;;;;;;;3.10;1.83;;;;;;;;;;5071318;28;20467;-67
2021/12/23 02:42:31;;;;;;;3.30;2.10;;;;;;;;;;5071560;28;20449;-67
2021/12/23 02:44:58;;;;;;;3.50;2.50;;;;;;;;;;5071898;28;20407;-67
2021/12/23 02:47:24;;;;;;;5.93;2.43;;;;;;;;;;5071802;28;20510;-67
2021/12/23 02:49:50;;;;;;;4.90;2.43;;;;;;;;;;5072185;28;20482;-67
2021/12/23 02:52:17;;;;;;;4.90;2.20;;;;;;;;;;5071679;28;20419;-67
2021/12/23 02:54:43;;;;;;;16.97;3.00;;;;;;;;;;5071670;28;20432;-67
2021/12/23 02:57:09;;;;;;;5.70;2.53;;;;;;;;;;5071543;28;20418;-67
2021/12/23 02:59:35;;;;;;;3.93;2.97;;;;;;;;;;5071610;28;20454;-68
2021/12/23 03:02:01;;;;;;;7.10;2.67;;;;;;;;;;5070855;28;20472;-67
2021/12/23 03:04:27;;;;;;;2.60;1.80;;;;;;;;;;5071435;28;20426;-68
2021/12/23 03:06:56;;;;;;;3.20;2.20;;;;;;;;;;5071588;28;20743;-68
2021/12/23 03:09:22;;;;;;;8.80;2.33;;;;;;;;;;5071627;28;20926;-68
2021/12/23 03:11:48;;;;;;;3.97;2.07;;;;;;;;;;5071061;28;20970;-67
2021/12/23 03:14:15;;;;;;;5.43;2.70;;;;;;;;;;5070955;28;20514;-68
2021/12/23 03:16:41;;;;;;;5.50;2.60;;;;;;;;;;5071501;28;20736;-68
2021/12/23 03:19:07;;;;;;;4.53;2.50;;;;;;;;;;5071132;28;20962;-68
2021/12/23 03:21:34;;;;;;;4.70;2.80;;;;;;;;;;5070920;28;20467;-68
2021/12/23 03:24:00;;;;;;;4.90;2.60;;;;;;;;;;5071168;28;20423;-68
2021/12/23 03:26:26;;;;;;;6.00;2.20;;;;;;;;;;5072490;28;20407;-67
2021/12/23 03:28:53;;;;;;;4.13;2.23;;;;;;;;;;5074803;28;20406;-67
2021/12/23 03:31:19;;;;;;;6.23;3.03;;;;;;;;;;5074521;28;20410;-67
2021/12/23 03:33:45;;;;;;;4.27;2.27;;;;;;;;;;5074768;28;20434;-68
2021/12/23 03:36:11;;;;;;;2.53;1.63;;;;;;;;;;5074490;28;20452;-67
2021/12/23 03:38:37;;;;;;;4.50;2.57;;;;;;;;;;5074481;28;20547;-67
2021/12/23 03:41:03;;;;;;;3.43;2.07;;;;;;;;;;5074282;28;20418;-67
2021/12/23 03:43:29;;;;;;;5.97;2.40;;;;;;;;;;5074498;28;21056;-67
2021/12/23 03:45:55;;;;;;;5.33;2.70;;;;;;;;;;5074377;28;20786;-67
2021/12/23 03:48:21;;;;;;;8.23;2.20;;;;;;;;;;5074343;28;20878;-67
2021/12/23 03:50:47;;;;;;;4.90;2.40;;;;;;;;;;5073563;28;20410;-68
2021/12/23 03:53:13;;;;;;;3.73;2.13;;;;;;;;;;5074304;28;20431;-67
2021/12/23 03:55:40;;;;;;;2.83;1.87;;;;;;;;;;5074513;28;20411;-67
2021/12/23 03:58:06;;;;;;;4.70;2.37;;;;;;;;;;5074275;28;20411;-67
2021/12/23 04:00:32;;;;;;;2.70;1.97;;;;;;;;;;5073959;28;20752;-67
2021/12/23 04:02:58;;;;;;;2.70;2.00;;;;;;;;;;5073934;28;20423;-68
2021/12/23 04:05:25;;;;;;;5.60;2.23;;;;;;;;;;5074288;28;20413;-68
2021/12/23 04:07:51;;;;;;;7.37;2.50;;;;;;;;;;5074314;28;20403;-68
2021/12/23 04:10:20;;;;;;;5.30;2.50;;;;;;;;;;5073867;28;20767;-68
2021/12/23 04:12:46;;;;;;;9.90;2.30;;;;;;;;;;5073832;28;20435;-67
2021/12/23 04:15:12;;;;;;;4.30;1.87;;;;;;;;;;5073759;28;20411;-68
2021/12/23 04:17:38;;;;;;;5.70;2.13;;;;;;;;;;5074122;28;20418;-68
2021/12/23 04:22:41;;;;;;;5.23;2.33;;;;;;;;;;5075265;28;20410;-68
2021/12/23 04:25:08;;;;;;;5.97;2.30;;;;;;;;;;5074007;28;20465;-68
2021/12/23 04:27:34;;;;;;;3.57;2.17;;;;;;;;;;5073510;28;20449;-68
2021/12/23 04:30:00;;;;;;;4.53;2.17;;;;;;;;;;5074683;28;20532;-68
2021/12/23 04:32:26;;;;;;;5.37;2.70;;;;;;;;;;5073645;28;20919;-68
2021/12/23 04:34:52;;;;;;;3.50;2.37;;;;;;;;;;5073523;28;20449;-68
2021/12/23 04:37:18;;;;;;;5.37;2.23;;;;;;;;;;5073744;28;20457;-67
2021/12/23 04:39:44;;;;;;;5.57;2.83;;;;;;;;;;5073239;28;20958;-68
2021/12/23 04:42:10;;;;;;;17.30;2.60;;;;;;;;;;5073012;28;20415;-68
2021/12/23 04:44:36;;;;;;;8.57;2.30;;;;;;;;;;5074989;28;20394;-67
2021/12/23 04:47:02;;;;;;;4.97;2.20;;;;;;;;;;5073502;28;20403;-67
2021/12/23 04:49:28;;;;;;;7.43;2.70;;;;;;;;;;5073352;28;20399;-67
2021/12/23 04:51:54;;;;;;;7.57;3.00;;;;;;;;;;5072717;28;20468;-67
2021/12/23 04:54:20;;;;;;;7.27;2.50;;;;;;;;;;5073208;28;20764;-67
2021/12/23 04:56:46;;;;;;;6.00;3.13;;;;;;;;;;5073037;28;20875;-67
2021/12/23 04:59:12;;;;;;;5.63;3.00;;;;;;;;;;5073047;28;20549;-67
2021/12/23 05:01:38;;;;;;;5.73;2.90;;;;;;;;;;5072879;28;20418;-67
2021/12/23 05:04:04;;;;;;;19.13;4.30;;;;;;;;;;5072478;28;20946;-68
2021/12/23 05:06:30;;;;;;;16.90;3.90;;;;;;;;;;5073149;28;20415;-67
2021/12/23 05:08:56;;;;;;;17.77;3.50;;;;;;;;;;5073036;28;20449;-67
2021/12/23 05:11:22;;;;;;;19.77;3.30;;;;;;;;;;5072439;28;20506;-68
2021/12/23 05:13:48;;;;;;;11.20;3.60;;;;;;;;;;5072837;28;20533;-68
2021/12/23 05:16:18;;;;;;;15.63;4.07;;;;;;;;;;5072488;28;20950;-68
2021/12/23 05:18:44;;;;;;;17.03;3.80;;;;;;;;;;5072534;28;20556;-68
2021/12/23 05:21:10;;;;;;;13.13;3.10;;;;;;;;;;5072480;28;20411;-68
2021/12/23 05:23:37;;;;;;;7.20;4.00;;;;;;;;;;5072636;28;20776;-67
2021/12/23 05:26:06;;;;;;;17.30;3.97;;;;;;;;;;5072591;28;20457;-67
2021/12/23 05:28:32;;;;;;;15.37;4.13;;;;;;;;;;5072472;28;20469;-67
2021/12/23 05:30:58;;;;;;;9.03;3.47;;;;;;;;;;5072307;28;20428;-68
2021/12/23 05:33:24;;;;;;;6.13;2.60;;;;;;;;;;5072178;28;20460;-68
2021/12/23 05:35:50;;;;;;;2.73;1.63;;;;;;;;;;5072580;28;20490;-68
2021/12/23 05:38:16;;;;;;;29.73;2.27;;;;;;;;;;5072552;28;20410;-68
2021/12/23 05:40:42;;;;;;;6.03;2.43;;;;;;;;;;5071507;28;20520;-68
2021/12/23 05:43:08;;;;;;;8.90;2.17;;;;;;;;;;5073592;28;20523;-67
2021/12/23 05:45:34;;;;;;;3.07;2.00;;;;;;;;;;5072427;28;20403;-67
2021/12/23 05:48:00;;;;;;;2.70;1.87;;;;;;;;;;5072257;28;20426;-67
2021/12/23 05:50:27;;;;;;;5.43;2.07;;;;;;;;;;5071029;28;20786;-67
2021/12/23 05:52:53;;;;;;;9.93;1.93;;;;;;;;;;5071909;28;20419;-67
2021/12/23 05:55:19;;;;;;;11.70;2.70;;;;;;;;;;5072257;28;20446;-68
2021/12/23 05:57:45;;;;;;;6.03;3.00;;;;;;;;;;5072306;28;20497;-67
2021/12/23 06:00:22;;;;;;;4.50;2.33;;;;;;;;;;5071707;28;20447;-67
2021/12/23 06:02:49;;;;;;;6.47;2.07;;;;;;;;;;5071935;28;20430;-67
2021/12/23 06:05:15;;;;;;;32.43;7.90;;;;;;;;;;5071191;28;20663;-66
2021/12/23 06:07:41;;;;;;;25.80;10.50;;;;;;;;;;5071616;28;20879;-66
2021/12/23 06:10:08;;;;;;;37.17;11.00;;;;;;;;;;5070763;28;20449;-66
2021/12/23 06:12:34;;;;;;;37.80;10.53;;;;;;;;;;5071947;28;20439;-66
2021/12/23 06:15:00;;;;;;;44.90;11.50;;;;;;;;;;5071978;28;20421;-66
2021/12/23 06:17:26;;;;;;;34.50;13.80;;;;;;;;;;5071540;28;20525;-66
2021/12/23 06:19:52;;;;;;;21.83;9.37;;;;;;;;;;5071125;28;20466;-67
2021/12/23 06:22:19;;;;;;;11.10;5.17;;;;;;;;;;5077939;28;20421;-67
2021/12/23 06:24:47;;;;;;;7.30;3.67;;;;;;;;;;5071707;28;20417;-68
2021/12/23 06:27:13;;;;;;;20.07;5.40;;;;;;;;;;5071913;28;20420;-67
2021/12/23 06:29:40;;;;;;;11.77;4.60;;;;;;;;;;5071347;28;20443;-68
2021/12/23 06:32:06;;;;;;;13.90;4.30;;;;;;;;;;5075311;28;20430;-67
2021/12/23 06:34:32;;;;;;;14.73;7.30;;;;;;;;;;5073205;28;20818;-67
2021/12/23 06:36:58;;;;;;;7.10;3.53;;;;;;;;;;5067151;28;20423;-68
2021/12/23 06:39:24;;;;;;;9.23;4.67;;;;;;;;;;5068234;28;20469;-68
2021/12/23 06:41:50;;;;;;;8.87;4.17;;;;;;;;;;5100947;28;20919;-69
2021/12/23 06:44:16;;;;;;;3.60;2.60;;;;;;;;;;5064666;28;20439;-70
2021/12/23 06:46:46;;;;;;;10.13;3.53;;;;;;;;;;5074487;28;20425;-68
2021/12/23 06:49:13;;;;;;;13.47;3.93;;;;;;;;;;5080619;28;20448;-70
2021/12/23 06:51:39;;;;;;;15.93;4.73;;;;;;;;;;5073185;28;20445;-69
2021/12/23 06:54:05;;;;;;;10.60;3.63;;;;;;;;;;5069810;28;20446;-70
2021/12/23 06:56:32;;;;;;;8.83;3.60;;;;;;;;;;5086520;28;20446;-69
2021/12/23 06:58:58;;;;;;;4.37;2.63;;;;;;;;;;5092750;28;20453;-68
2021/12/23 07:01:24;;;;;;;20.73;3.23;;;;;;;;;;5092537;28;20438;-70
2021/12/23 07:06:37;;;;;;;4.30;2.63;;;;;;;;;;5096847;28;20400;-69
2021/12/23 07:09:06;;;;;;;8.47;4.00;;;;;;;;;;5096486;28;20421;-69
2021/12/23 07:11:33;;;;;;;5.80;3.57;;;;;;;;;;5095005;28;20448;-69
2021/12/23 07:13:59;;;;;;;5.57;3.50;;;;;;;;;;5095172;28;20434;-69
2021/12/23 07:16:26;;;;;;;11.30;4.73;;;;;;;;;;5095175;28;20912;-69
2021/12/23 07:18:52;;;;;;;11.57;4.47;;;;;;;;;;5094652;28;20488;-68
2021/12/23 07:21:18;;;;;;;6.77;3.20;;;;;;;;;;5094840;28;20428;-68
2021/12/23 07:23:44;;;;;;;19.13;3.70;;;;;;;;;;5094825;28;20818;-69
2021/12/23 07:26:10;;;;;;;9.33;4.17;;;;;;;;;;5094969;28;20398;-69
2021/12/23 07:28:36;;;;;;;9.50;3.40;;;;;;;;;;5096413;28;20408;-69
2021/12/23 07:31:02;;;;;;;17.30;4.73;;;;;;;;;;5094061;28;20472;-69
2021/12/23 07:33:28;;;;;;;7.97;3.10;;;;;;;;;;5096091;28;20546;-69
2021/12/23 07:35:54;;;;;;;14.73;3.07;;;;;;;;;;5096198;28;20439;-68
2021/12/23 07:38:20;;;;;;;12.50;2.77;;;;;;;;;;5094967;28;20430;-70
2021/12/23 07:40:47;;;;;;;25.10;6.53;;;;;;;;;;5094691;28;20406;-69
2021/12/23 07:43:42;;;;;;;19.60;6.23;;;;;;;;;;5094422;28;20414;-68
2021/12/23 07:46:08;;;;;;;21.73;6.30;;;;;;;;;;5094730;28;20424;-68
2021/12/23 07:48:35;;;;;;;21.20;5.93;;;;;;;;;;5094900;28;20886;-68
2021/12/23 07:51:02;;;;;;;19.73;6.07;;;;;;;;;;5094458;28;20406;-68
2021/12/23 07:53:28;;;;;;;14.43;5.90;;;;;;;;;;5094575;28;20426;-68
2021/12/23 07:55:54;;;;;;;9.67;5.13;;;;;;;;;;5094470;28;20488;-70
2021/12/23 07:58:20;;;;;;;20.27;5.60;;;;;;;;;;5094722;28;20437;-69
2021/12/23 08:00:46;;;;;;;19.20;4.87;;;;;;;;;;5094013;28;20418;-69
2021/12/23 08:03:13;;;;;;;21.77;5.50;;;;;;;;;;5094544;28;20918;-70
2021/12/23 08:05:39;;;;;;;20.07;5.63;;;;;;;;;;5094661;28;20410;-67
2021/12/23 08:08:05;;;;;;;22.10;5.40;;;;;;;;;;5094042;28;20413;-69
2021/12/23 08:10:31;;;;;;;11.03;4.87;;;;;;;;;;5094040;28;20418;-68
2021/12/23 08:12:57;;;;;;;12.93;4.90;;;;;;;;;;5093967;28;20440;-69
2021/12/23 08:15:24;;;;;;;19.53;5.03;;;;;;;;;;5094153;28;20406;-69
2021/12/23 08:17:51;;;;;;;8.43;4.53;;;;;;;;;;5094009;28;20416;-68
2021/12/23 08:20:17;;;;;;;11.63;5.23;;;;;;;;;;5093329;28;20507;-69
2021/12/23 08:22:43;;;;;;;10.30;4.10;;;;;;;;;;5093995;28;20417;-67
2021/12/23 08:25:10;;;;;;;6.87;3.60;;;;;;;;;;5094056;28;20444;-69
2021/12/23 08:27:36;;;;;;;7.20;3.80;;;;;;;;;;5094176;28;20414;-69
2021/12/23 08:30:06;;;;;;;8.67;4.93;;;;;;;;;;5093427;28;20410;-69
2021/12/23 08:32:33;;;;;;;6.20;3.70;;;;;;;;;;5093571;28;20490;-68
2021/12/23 08:34:59;;;;;;;13.30;4.53;;;;;;;;;;5093862;28;20405;-68
2021/12/23 08:37:25;;;;;;;10.57;4.57;;;;;;;;;;5093846;28;20539;-69
2021/12/23 08:39:51;;;;;;;9.30;4.30;;;;;;;;;;5093250;28;20489;-70
2021/12/23 08:42:18;;;;;;;12.50;4.20;;;;;;;;;;5093681;28;20885;-68
2021/12/23 08:44:44;;;;;;;9.73;4.23;;;;;;;;;;5087298;28;20411;-68
2021/12/23 08:47:10;;;;;;;9.43;4.60;;;;;;;;;;5073170;28;20433;-68
2021/12/23 08:49:36;;;;;;;6.23;4.40;;;;;;;;;;5073030;28;20426;-69
2021/12/23 08:52:03;;;;;;;9.57;5.20;;;;;;;;;;5072648;28;20496;-69
2021/12/23 08:54:29;;;;;;;9.87;5.90;;;;;;;;;;5069591;28;20438;-69
2021/12/23 08:56:56;;;;;;;12.53;5.43;;;;;;;;;;5072311;28;20786;-67
2021/12/23 08:59:22;;;;;;;8.20;3.93;;;;;;;;;;5072606;28;20808;-68
2021/12/23 09:01:48;;;;;;;8.00;3.60;;;;;;;;;;5072393;28;20411;-68
2021/12/23 09:04:14;;;;;;;8.50;4.50;;;;;;;;;;5072665;28;20506;-68
2021/12/23 09:06:41;;;;;;;8.00;5.23;;;;;;;;;;5073005;28;20403;-68
2021/12/23 09:09:08;;;;;;;6.87;4.67;;;;;;;;;;5072539;28;20414;-68
2021/12/23 09:11:34;;;;;;;6.90;3.00;;;;;;;;;;5072592;28;20422;-68
2021/12/23 09:14:00;;;;;;;5.03;2.90;;;;;;;;;;5074029;28;20476;-67
2021/12/23 09:16:26;;;;;;;7.57;4.17;;;;;;;;;;5072587;28;20438;-70
2021/12/23 09:18:52;;;;;;;8.70;4.63;;;;;;;;;;5072638;28;20551;-68
2021/12/23 09:21:18;;;;;;;8.00;3.97;;;;;;;;;;5072016;28;20410;-68
2021/12/23 09:23:44;;;;;;;4.90;3.83;;;;;;;;;;5071589;28;20467;-69
2021/12/23 09:26:11;;;;;;;3.20;2.37;;;;;;;;;;5072650;28;20431;-68
2021/12/23 09:28:56;;;;;;;4.40;2.97;;;;;;;;;;5072749;28;20414;-68
2021/12/23 09:34:15;;;;;;;17.30;2.83;;;;;;;;;;5042483;28;20427;-69
2021/12/23 09:36:41;;;;;;;27.30;5.37;;;;;;;;;;5073903;28;20903;-68
2021/12/23 09:39:08;;;;;;;4.27;2.50;;;;;;;;;;5072488;28;20486;-69
2021/12/23 09:41:34;;;;;;;7.03;3.73;;;;;;;;;;5072179;28;20804;-68
2021/12/23 09:44:02;;;;;;;3.83;2.27;;;;;;;;;;5073298;28;20415;-69
2021/12/23 09:46:28;;;;;;;7.00;1.87;;;;;;;;;;5072305;28;20407;-69
2021/12/23 09:48:54;;;;;;;4.23;1.90;;;;;;;;;;5072427;28;20403;-69
2021/12/23 09:51:21;;;;;;;4.80;2.10;;;;;;;;;;5071907;28;20486;-69
2021/12/23 09:53:55;;;;;;;5.33;2.40;;;;;;;;;;5072138;28;20427;-68
2021/12/23 09:56:21;;;;;;;12.43;3.97;;;;;;;;;;5071993;28;20468;-69
2021/12/23 09:58:47;;;;;;;3.83;2.13;;;;;;;;;;5072101;28;20443;-69
2021/12/23 10:01:13;;;;;;;3.70;1.87;;;;;;;;;;5071790;28;20407;-69
2021/12/23 10:03:39;;;;;;;2.37;1.53;;;;;;;;;;5072000;28;20423;-68
2021/12/23 10:06:06;;;;;;;2.80;2.03;;;;;;;;;;5071766;28;20415;-69
2021/12/23 10:08:32;;;;;;;2.87;1.90;;;;;;;;;;5071392;28;20407;-69
2021/12/23 10:38:28;;;;;;;2.00;1.40;;;;;;;;;;5032185;28;20509;-69
2021/12/23 10:40:57;;;;;;;2.77;1.93;;;;;;;;;;5075312;28;20489;-69
2021/12/23 10:43:25;;;;;;;4.80;2.60;;;;;;;;;;5075292;28;20915;-69
2021/12/23 10:45:56;;;;;;;2.40;1.40;;;;;;;;;;5075263;28;20907;-69
2021/12/23 10:48:24;;;;;;;3.53;1.83;;;;;;;;;;5074770;28;20422;-69
2021/12/23 10:50:56;;;;;;;3.50;1.93;;;;;;;;;;5074398;28;20456;-68
2021/12/23 10:59:19;;;;;;;2.53;1.40;;;;;;;;;;5063784;28;20465;-69
2021/12/23 11:02:02;;;;;;;3.83;1.60;;;;;;;;;;5074870;28;20498;-69
2021/12/23 11:04:30;;;;;;;2.03;1.67;;;;;;;;;;5075154;28;20446;-68
2021/12/23 11:07:14;;;;;;;5.73;2.27;;;;;;;;;;5076191;28;20431;-69
2021/12/23 11:10:07;;;;;;;2.67;1.63;;;;;;;;;;5076146;28;20886;-69
2021/12/23 11:35:33;;;;;;;2.33;1.23;;;;;;;;;;5055765;28;20396;-68
2021/12/23 11:37:51;;;;;;;2.20;1.40;;;;;;;;;;5056161;28;20411;-68
2021/12/23 11:41:30;;;;;;;2.90;1.80;;;;;;;;;;5055409;28;20455;-68
2021/12/23 11:45:47;;;;;;;2.20;1.50;;;;;;;;;;5055434;28;20392;-68
2021/12/23 11:48:14;;;;;;;3.20;2.17;;;;;;;;;;5063656;28;20415;-68
2021/12/23 11:53:39;;;;;;;1.90;1.40;;;;;;;;;;5041014;28;20467;-68
2021/12/23 11:56:07;;;;;;;2.30;1.50;;;;;;;;;;5074173;28;20775;-68
2021/12/23 11:58:33;;;;;;;1.90;1.40;;;;;;;;;;5073583;28;20480;-68
2021/12/23 12:01:11;;;;;;;4.40;1.50;;;;;;;;;;5073358;28;20494;-70
2021/12/23 12:03:38;;;;;;;1.80;1.40;;;;;;;;;;5073099;28;20524;-69
2021/12/23 12:06:17;;;;;;;3.37;2.03;;;;;;;;;;5073463;28;20422;-69
2021/12/23 12:08:44;;;;;;;2.27;1.43;;;;;;;;;;5073135;28;20406;-69
2021/12/23 12:11:14;;;;;;;2.30;1.50;;;;;;;;;;5072420;28;20468;-70
2021/12/23 12:13:40;;;;;;;3.63;1.30;;;;;;;;;;5073477;28;20443;-69
2021/12/23 12:16:25;;;;;;;4.40;1.90;;;;;;;;;;5073816;28;20419;-69
2021/12/23 12:18:51;;;;;;;2.40;1.80;;;;;;;;;;5073771;28;20489;-69
2021/12/23 12:21:22;;;;;;;2.00;1.60;;;;;;;;;;5073208;28;20455;-69
2021/12/23 12:23:47;;;;;;;1.63;1.00;;;;;;;;;;5073330;28;20439;-69
2021/12/23 12:26:24;;;;;;;2.03;1.60;;;;;;;;;;5073686;28;20415;-69
2021/12/23 12:28:51;;;;;;;3.50;1.30;;;;;;;;;;5073512;28;20407;-69
2021/12/23 12:31:19;;;;;;;2.53;1.87;;;;;;;;;;5073292;28;20415;-69
2021/12/23 12:33:52;;;;;;;1.60;1.23;;;;;;;;;;5073278;28;21147;-69
2021/12/23 12:36:18;;;;;;;2.13;1.20;;;;;;;;;;5053149;28;20423;-69
2021/12/23 12:38:50;;;;;;;3.13;2.07;;;;;;;;;;5085500;28;20402;-69
2021/12/23 12:41:18;;;;;;;2.60;1.10;;;;;;;;;;5073110;28;20421;-69
2021/12/23 12:43:51;;;;;;;3.37;1.17;;;;;;;;;;5073281;28;20426;-70
2021/12/23 12:46:30;;;;;;;2.73;1.73;;;;;;;;;;5073471;28;20418;-70
2021/12/23 12:48:57;;;;;;;1.80;1.27;;;;;;;;;;5073009;28;20420;-69
2021/12/23 12:51:25;;;;;;;3.37;1.77;;;;;;;;;;5072785;28;20901;-70
2021/12/23 12:53:56;;;;;;;1.63;1.07;;;;;;;;;;5073303;28;20547;-70
2021/12/23 12:56:29;;;;;;;3.63;1.50;;;;;;;;;;5073288;28;20767;-70
2021/12/23 12:58:55;;;;;;;1.40;0.93;;;;;;;;;;5071275;28;20466;-70
2021/12/23 13:01:34;;;;;;;2.83;1.30;;;;;;;;;;5072743;28;20454;-69
2021/12/23 13:04:01;;;;;;;2.30;1.53;;;;;;;;;;5072696;28;20430;-71
2021/12/23 13:06:35;;;;;;;2.03;1.37;;;;;;;;;;5073201;28;20418;-69
2021/12/23 13:09:05;;;;;;;1.97;1.20;;;;;;;;;;5072028;28;20484;-70
2021/12/23 13:11:31;;;;;;;2.97;1.67;;;;;;;;;;5071149;28;20411;-69
2021/12/23 13:14:01;;;;;;;1.27;0.80;;;;;;;;;;5072402;28;20443;-70
2021/12/23 13:16:27;;;;;;;2.47;1.23;;;;;;;;;;5064044;28;20425;-72
2021/12/23 13:19:13;;;;;;;1.50;1.13;;;;;;;;;;5085362;28;20451;-71
2021/12/23 13:21:43;;;;;;;3.60;1.30;;;;;;;;;;5069141;28;20407;-69
2021/12/23 13:24:13;;;;;;;2.70;1.87;;;;;;;;;;5072021;28;20434;-70
2021/12/23 13:26:39;;;;;;;2.73;1.60;;;;;;;;;;5072655;28;20403;-70
2021/12/23 13:29:07;;;;;;;2.60;1.30;;;;;;;;;;5073655;28;20406;-70
2021/12/23 13:31:34;;;;;;;3.10;1.40;;;;;;;;;;5072400;28;20461;-70
2021/12/23 13:34:06;;;;;;;1.60;1.00;;;;;;;;;;5071989;28;20524;-71
2021/12/23 13:36:46;;;;;;;1.90;1.37;;;;;;;;;;5071637;28;20801;-70
2021/12/23 13:39:13;;;;;;;2.10;1.47;;;;;;;;;;5064115;28;20489;-70
2021/12/23 13:41:46;;;;;;;3.13;1.43;;;;;;;;;;5068172;28;20472;-69
2021/12/23 13:44:15;;;;;;;2.37;1.73;;;;;;;;;;5071769;28;20431;-68
2021/12/23 13:46:46;;;;;;;2.30;1.80;;;;;;;;;;5071646;28;20411;-68
2021/12/23 13:49:13;;;;;;;2.30;1.47;;;;;;;;;;5072066;28;20418;-68
2021/12/23 13:51:41;;;;;;;3.00;1.40;;;;;;;;;;5072179;28;20413;-68
2021/12/23 13:54:12;;;;;;;5.20;1.70;;;;;;;;;;5072168;28;20496;-68
2021/12/23 13:56:39;;;;;;;2.03;1.30;;;;;;;;;;5072290;28;20414;-68
2021/12/23 13:59:07;;;;;;;3.20;1.90;;;;;;;;;;5072273;28;20515;-70
2021/12/23 14:01:33;;;;;;;1.97;1.30;;;;;;;;;;5072966;28;20406;-68
2021/12/23 14:03:59;;;;;;;1.63;1.10;;;;;;;;;;5071975;28;20423;-70
2021/12/23 14:06:25;;;;;;;6.53;1.70;;;;;;;;;;5072312;28;20441;-68
2021/12/23 14:08:51;;;;;;;11.30;2.40;;;;;;;;;;5072033;28;20399;-68
2021/12/23 14:11:16;;;;;;;3.40;2.30;;;;;;;;;;5070983;28;20415;-67
2021/12/23 14:13:42;;;;;;;3.87;2.10;;;;;;;;;;5071789;28;20427;-68
2021/12/23 14:16:09;;;;;;;3.73;1.87;;;;;;;;;;5072165;28;20501;-69
2021/12/23 14:23:51;;;;;;;2.23;1.20;;;;;;;;;;5073185;28;20414;-68
2021/12/23 14:26:21;;;;;;;2.87;1.40;;;;;;;;;;5071579;28;20443;-66
2021/12/23 14:28:46;;;;;;;2.93;1.20;;;;;;;;;;5072013;28;20729;-66
2021/12/23 14:31:12;;;;;;;3.23;1.57;;;;;;;;;;5071699;28;20418;-66
2021/12/23 14:33:43;;;;;;;1.57;1.23;;;;;;;;;;5071166;28;20418;-67
2021/12/23 14:36:17;;;;;;;6.00;1.90;;;;;;;;;;5071975;28;20887;-66
2021/12/23 14:38:44;;;;;;;2.27;1.60;;;;;;;;;;5072910;28;20403;-67
2021/12/23 14:41:13;;;;;;;4.20;1.30;;;;;;;;;;5071256;28;20399;-67
2021/12/23 14:43:56;;;;;;;3.50;1.83;;;;;;;;;;5071794;28;20427;-66
2021/12/23 14:46:40;;;;;;;3.47;1.83;;;;;;;;;;5071967;28;20421;-68
2021/12/23 14:52:24;;;;;;;3.33;1.80;;;;;;;;;;5072747;28;20403;-66
2021/12/23 14:54:53;;;;;;;3.13;1.33;;;;;;;;;;5071987;28;20510;-68
2021/12/23 14:57:20;;;;;;;4.93;2.03;;;;;;;;;;5071839;28;20426;-68
2021/12/23 14:59:51;;;;;;;3.07;1.87;;;;;;;;;;5071591;28;20946;-67
2021/12/23 15:02:19;;;;;;;2.87;1.17;;;;;;;;;;5071340;28;20441;-68
2021/12/23 15:05:03;;;;;;;3.43;1.93;;;;;;;;;;5071649;28;20410;-66
2021/12/23 15:07:45;;;;;;;2.43;1.37;;;;;;;;;;5071731;28;20883;-68
2021/12/23 15:10:11;;;;;;;5.43;1.50;;;;;;;;;;5071034;28;20468;-67
2021/12/23 15:12:37;;;;;;;2.90;1.70;;;;;;;;;;5070740;28;20445;-67
2021/12/23 15:15:07;;;;;;;2.33;1.50;;;;;;;;;;5070443;28;20431;-68
2021/12/23 15:17:42;;;;;;;2.63;1.60;;;;;;;;;;5071368;28;20411;-68
2021/12/23 15:20:26;;;;;;;5.10;1.90;;;;;;;;;;5066447;28;20466;-68
2021/12/23 15:22:54;;;;;;;2.70;1.93;;;;;;;;;;5073111;28;20494;-68
2021/12/23 15:25:20;;;;;;;4.13;2.30;;;;;;;;;;5074626;28;20471;-68
2021/12/23 15:27:46;;;;;;;3.83;2.10;;;;;;;;;;5075190;28;20909;-67
2021/12/23 15:30:18;;;;;;;3.73;1.87;;;;;;;;;;5073937;28;20418;-69
2021/12/23 15:32:45;;;;;;;2.60;1.93;;;;;;;;;;5074313;28;20847;-68
2021/12/23 15:35:15;;;;;;;2.73;1.73;;;;;;;;;;5074075;28;20760;-67
2021/12/23 15:37:42;;;;;;;4.03;1.97;;;;;;;;;;5074444;28;20418;-68
2021/12/23 15:40:10;;;;;;;3.83;2.03;;;;;;;;;;5074200;28;20481;-67
2021/12/23 15:42:36;;;;;;;2.67;1.80;;;;;;;;;;5074758;28;20798;-66
2021/12/23 15:45:02;;;;;;;3.43;2.40;;;;;;;;;;5074840;28;21040;-66
2021/12/23 15:47:29;;;;;;;3.37;2.13;;;;;;;;;;5074551;28;20438;-68
2021/12/23 15:49:57;;;;;;;2.87;1.80;;;;;;;;;;5074006;28;20430;-68
2021/12/23 15:52:23;;;;;;;3.27;1.73;;;;;;;;;;5074638;28;20891;-68
2021/12/23 15:54:50;;;;;;;3.67;1.97;;;;;;;;;;5074328;28;20410;-67
2021/12/23 15:57:17;;;;;;;2.17;1.53;;;;;;;;;;5074515;28;20406;-68
2021/12/23 15:59:45;;;;;;;2.97;2.00;;;;;;;;;;5073378;28;20549;-68
2021/12/23 16:02:12;;;;;;;2.20;1.57;;;;;;;;;;5074829;28;20406;-67
2021/12/23 16:04:46;;;;;;;3.30;1.77;;;;;;;;;;5074500;28;20403;-68
2021/12/23 16:07:19;;;;;;;1.77;1.20;;;;;;;;;;5074397;28;20423;-67
2021/12/23 16:09:50;;;;;;;1.70;1.20;;;;;;;;;;5074256;28;20430;-67